x

Corpus Christi, Tx - 60nm Sse Of Corpus Christi, Tx (42020) Wave Buoy

6:50pm - Wed 31st Aug 2016 All times are CDT. -5 hours from GMT.

  • Sig Wave height 3.6ft
  • Swell Direction
  • Peak Period 8s
  • Average Period 5s
  • Wind
    11mph, 16mph gusts
  • Sea Temp 86°f
  • Air Temp 85°f
  • Sea Pressure 1010.1mb
  • Corpus Christi, Tx - 60nm Sse Of Corpus Christi, Tx
  • Corpus Christi, Tx - 60nm Sse Of Corpus Christi, Tx

More Historic Weather Station data

Upgrade to MSW Pro to gain access to the past 30 days of data for over 8000 Wavebouys and Weather Stations around the globe.

Join Pro

Comparision Forecast

View Surf forecast
   
Wed 08/31 6:50pm 3.5ft 8s 5s 11 16 mph 1010.1mb 86f 85f
5:50pm 4ft 7s 5s 13 16 mph 1010mb 86f 85f
4:50pm 3.5ft 5s 5s 11 13 mph 1010.3mb 86f 85f
3:50pm 4ft 8s 5s 16
mph
1010.3mb 85f 84f
2:50pm 4ft 8s 5s 16 20 mph 1010.5mb 85f 83f
1:50pm 4ft 7s 5s 16 18 mph 1011.7mb 85f 82f
12:50pm 3.5ft 7s 5s 13 16 mph 1012.7mb 85f 82f
11:50am 3.5ft 7s 5s 11 13 mph 1012.8mb 85f 81f
10:50am 4ft 7s 5s 9 11 mph 1013mb 85f 81f
9:50am 4ft 7s 5s 11
mph
1013mb 85f 79f
8:50am 4ft 8s 5s 16 18 mph 1012.8mb 85f 78f
7:50am 3.5ft 7s 5s 11 16 mph 1012.4mb 85f 77f
6:50am 3.5ft 7s 5s 13 16 mph 1010.4mb 86f 84f
5:50am 3.5ft 7s 5s 11 13 mph 1010.5mb 86f 83f
4:50am 3.5ft 7s 5s 13 18 mph 1010.8mb 86f 81f
3:50am 4ft 7s 5s 7 9 mph 1011.3mb 86f 84f
2:50am 4ft 7s 5s 11
mph
1011.3mb 86f 84f
1:50am 4.5ft 7s 5s 13 16 mph 1011.7mb 86f 83f
12:50am 4.5ft 7s 5s 18 22 mph 1011.8mb 86f 82f
Tue 08/30 11:50pm 4.5ft 7s 5s 18 20 mph 1011.8mb 86f 84f
10:50pm 4.5ft 7s 5s 16 20 mph 1011.6mb 86f 83f
9:50pm 4.5ft 7s 5s 18 22 mph 1011.4mb 86f 83f
8:50pm 5ft 7s 5s 16 20 mph 1011.1mb 86f 81f
7:50pm 5ft 7s 5s 22 27 mph 1010.6mb 86f 81f
6:50pm 4.5ft 6s 4s 25 31 mph 1010mb 86f 80f
5:50pm 4ft 7s 5s 25 29 mph 1010.1mb 86f 80f
4:50pm 4ft 7s 5s 18 22 mph 1010.3mb 86f 83f
3:50pm 4.5ft 7s 5s 16 18 mph 1010.4mb 86f 83f
2:50pm 4.5ft 7s 5s 16 18 mph 1010.8mb 86f 82f
1:50pm 4.5ft 7s 5s 16 18 mph 1011.8mb 86f 82f
12:50pm 4.5ft 7s 5s 18 20 mph 1012.1mb 86f 82f
11:50am 4.5ft 7s 5s 13 16 mph 1012mb 86f 82f
10:50am 4.5ft 7s 5s 18 20 mph 1011.9mb 86f 81f
9:50am 4.5ft 7s 5s 13 18 mph 1011.6mb 86f 80f
8:50am 4.5ft 7s 5s 9 11 mph 1011.5mb 86f 81f
7:50am 3.5ft 7s 5s 9 11 mph 1011.1mb 86f 80f
5:50am 4ft 6s 5s 7 9 mph 1010.5mb 86f 82f
4:50am 4ft 7s 4s 20 22 mph 1009.6mb 86f 82f
3:50am 3.5ft 7s 5s 18 20 mph 1009.4mb 86f 81f
2:50am 3.5ft 6s 4s 13 16 mph 1010.2mb 86f 85f
1:50am 3.5ft 6s 5s 16 18 mph 1010.5mb 86f 85f
12:50am 2.5ft 6s 4s 13 16 mph 1011.3mb 86f 85f
Mon 08/29 11:50pm 3.5ft 6s 5s 13 18 mph 1011.3mb 86f 85f
10:50pm 3.5ft 6s 5s 11
mph
1011mb 86f 85f
9:50pm 3ft 5s 5s 9 11 mph 1010.6mb 86f 84f
8:50pm 2.5ft 6s 4s 7 9 mph 1010mb 86f 84f
7:50pm 2.5ft 6s 4s 11 13 mph 1009.8mb 86f 83f
6:50pm 2.5ft 5s 4s 11 13 mph 1009.6mb 86f 83f
5:50pm 2.5ft 5s 4s 9 11 mph 1010mb 86f 83f
4:50pm 2ft 5s  -  11 13 mph 1009.9mb 86f 82f
3:50pm 2ft 5s 4s 13 16 mph 1010.3mb 86f 83f
2:50pm 2.5ft 5s 4s 13 16 mph 1011.1mb 86f 83f
1:50pm 2.5ft 5s 4s 16 18 mph 1011.5mb 86f 82f
12:50pm 2.5ft 5s 4s 16 18 mph 1012.1mb 86f 83f
11:50am 2.5ft 5s 4s 13 16 mph 1012.7mb 86f 83f
10:50am 2.5ft 6s 4s 16 18 mph 1012.3mb 86f 82f
9:50am 2.5ft 3s 4s 13 16 mph 1012.5mb 86f 82f
8:50am 2ft 5s 3s 13 18 mph 1012.2mb 86f 81f
7:50am 1.6ft 5s 4s 13 16 mph 1011.6mb 86f 83f
6:50am 1.6ft 6s 4s 13
mph
1011.3mb 86f 83f
5:50am 1.3ft 5s 4s 11 13 mph 1010.8mb 86f 83f
4:50am 1.3ft 6s 4s 9 11 mph 1010.5mb 86f 83f
3:50am 1.3ft 6s 5s 9 11 mph 1010.8mb 86f 83f
2:50am 1.6ft 6s 4s 7
mph
1011.4mb 86f 83f
1:50am 1.6ft 6s 4s 2 4 mph 1011.8mb 86f 83f
12:50am 1.6ft 6s 4s  -  2 mph 1012.4mb 86f 83f
Sun 08/28 11:50pm 1.6ft 6s 4s  -  2 mph 1012.7mb 86f 83f
10:50pm 2ft 6s 4s 2 4 mph 1012.5mb 86f 83f
9:50pm 2ft 6s 4s 4 7 mph 1012mb 86f 83f
8:50pm 1.6ft 6s 4s 9 11 mph 1011.2mb 86f 83f
7:50pm 1.6ft 6s 4s 7 9 mph 1010.8mb 86f 83f
6:50pm 1.6ft 7s 4s 9 11 mph 1010.7mb 86f 84f
5:50pm 2ft 6s 4s 9 11 mph 1011mb 87f 84f
4:50pm 2ft 6s 4s 11 13 mph 1011.1mb 86f 84f
3:50pm 2ft 7s 4s 11 13 mph 1011.9mb 87f 83f
2:50pm 2.5ft 6s 4s 11 13 mph 1013mb 86f 83f
1:50pm 2.5ft 7s 4s 11 13 mph 1013.6mb 86f 83f
12:50pm 2ft 5s 4s 16 18 mph 1013.8mb 86f 83f
11:50am 2ft 7s 5s 13
mph
1014.3mb 86f 84f
10:50am 1.6ft 7s 5s 9 11 mph 1014.5mb 86f 84f
9:50am 2ft 7s 5s 9 11 mph 1014.2mb 86f 84f
8:50am 2ft 7s 5s 7 9 mph 1013.7mb 86f 84f
7:50am 2ft 7s 5s 4 7 mph 1013.4mb 86f 84f
6:50am 1.6ft 7s 5s 4
mph
1013mb 86f 84f
5:50am 2ft 7s 5s 2 4 mph 1012.7mb 86f 84f
4:50am 2ft 7s 5s 2
mph
1012.5mb 86f 84f
3:50am 2ft 7s 5s  -  2 mph 1012.8mb 86f 84f
2:50am 2ft 7s 5s 4
mph
1013.1mb 86f 84f
1:50am 2ft 7s 4s 4 7 mph 1013.5mb 86f 84f